This is the latest recevied weather packets stored in our database for station/object LRTR. If no packets are shown the sender has not sent any weather packets the latest 10 day(s).
| Time | Temp. | Humidity | Pressure | Rain* | Wind** | Luminosity | Snow |
|---|---|---|---|---|---|---|---|
| 1777707185 | 12.78° C | 47% | 1024 hPa | - | - | - | - |
| 1777706285 | 12.22° C | 51% | 1024 hPa | - | - | - | - |
| 1777705386 | 12.22° C | 51% | 1024 hPa | - | - | - | - |
| 1777704485 | 11.11° C | 58% | 1024 hPa | - | - | - | - |
| 1777703585 | 11.11° C | 58% | 1024 hPa | - | - | - | - |
| 1777702685 | 10° C | 62% | 1024 hPa | - | - | - | - |
| 1777701785 | 10° C | 62% | 1024 hPa | - | - | - | - |
| 1777700885 | 7.78° C | 71% | 1024 hPa | - | - | - | - |
| 1777699986 | 7.78° C | 71% | 1024 hPa | - | - | - | - |
| 1777699085 | 6.11° C | 81% | 1023 hPa | - | - | - | - |
| 1777698185 | 6.11° C | 81% | 1023 hPa | - | - | - | - |
| 1777697285 | 5° C | 87% | 1023 hPa | - | - | - | - |
| 1777696385 | 5° C | 87% | 1023 hPa | - | - | - | - |
| 1777695485 | 3.89° C | 87% | 1023 hPa | - | - | - | - |
| 1777694585 | 3.89° C | 87% | 1023 hPa | - | - | - | - |
| 1777693759 | 2.78° C | 87% | 1023 hPa | - | - | - | - |
| 1777692785 | 2.78° C | 87% | 1023 hPa | - | - | - | - |
| 1777691885 | 1.11° C | 93% | 1023 hPa | - | - | - | - |
| 1777690985 | 1.11° C | 93% | 1023 hPa | - | - | - | - |
| 1777690085 | 0° C | 93% | 1023 hPa | - | - | - | - |
| 1777689185 | 0° C | 93% | 1023 hPa | - | - | - | - |
| 1777688285 | 1.11° C | 87% | 1023 hPa | - | - | - | - |
| 1777687385 | 1.11° C | 87% | 1023 hPa | - | - | - | - |
| 1777686485 | 2.22° C | 87% | 1023 hPa | - | - | - | - |
| 1777685585 | 2.22° C | 87% | 1023 hPa | - | - | - | - |
* Rain since midnight (hover to see other rain measurements)
** Current wind speed in m/s (hover to see current wind gust speed)